Terminal Aerodrome Forecast
Issued by NWS

Home | Current Version | Previous Version | Text Only | Print | Product List | Glossary Off
Versions: 1 2 3 4 5 6 7 8 9 10 11 12 13 14 15 16 17

000
FTUS42 KMHX 301235 AAA
TAFPGV
TAF AMD
KPGV 301235Z 3013/3112 VRB04KT P6SM BKN200
      TEMPO 3013/3014 5SM BR
     FM310200 21003KT P6SM OVC050
     FM310800 VRB03KT P6SM OVC025
      AMD LTD TO CLD VIS AND WIND=

USA.gov is the U.S. government's official web portal to all federal, state and local government web resources and services.